Time;durP1;ratioP1;P1;durP2;ratioP2;P2;SDS_P1;SDS_P2;PMS_P1;PMS_P2;Temp;Humidity;BMP_temperature;BMP_pressure;BME280_temperature;BME280_humidity;BME280_pressure;Samples;Min_cycle;Max_cycle;Signal;HPM_P1;HPM_P2
2023/03/25 00:01:12;;;;;;;;;;;;;;;;;;5017245;28;19909;-24
2023/03/25 00:03:40;;;;;;;;;;;;;;;;;;5016973;28;20411;-24
2023/03/25 00:06:06;;;;;;;;;;;;;;;;;;5017374;28;20009;-24
2023/03/25 00:08:32;;;;;;;;;;;;;;;;;;5017063;28;19918;-24
2023/03/25 00:10:58;;;;;;;;;;;;;;;;;;5017034;28;20359;-24
2023/03/25 00:13:24;;;;;;;;;;;;;;;;;;5016844;28;20000;-24
2023/03/25 00:15:52;;;;;;;;;;;;;;;;;;5016918;28;19968;-29
2023/03/25 00:18:18;;;;;;;;;;;;;;;;;;5017214;28;19921;-24
2023/03/25 00:20:44;;;;;;;;;;;;;;;;;;5016825;28;19920;-24
2023/03/25 00:23:10;;;;;;;;;;;;;;;;;;5017046;28;20233;-24
2023/03/25 00:25:36;;;;;;;;;;;;;;;;;;5016393;28;19967;-24
2023/03/25 00:28:02;;;;;;;;;;;;;;;;;;5016799;28;20359;-24
2023/03/25 00:30:28;;;;;;;;;;;;;;;;;;5016682;28;20233;-24
2023/03/25 00:32:56;;;;;;;;;;;;;;;;;;5016470;28;19914;-24
2023/03/25 00:35:22;;;;;;;;;;;;;;;;;;5016561;28;20004;-24
2023/03/25 00:37:56;;;;;;;;;;;;;;;;;;5016547;28;19909;-24
2023/03/25 00:40:22;;;;;;;;;;;;;;;;;;5016809;28;19918;-24
2023/03/25 00:42:48;;;;;;;;;;;;;;;;;;5016398;28;20344;-24
2023/03/25 00:45:14;;;;;;;;;;;;;;;;;;5016410;28;19920;-24
2023/03/25 00:47:40;;;;;;;;;;;;;;;;;;5016396;28;19910;-24
2023/03/25 00:50:06;;;;;;;;;;;;;;;;;;5016342;28;19972;-24
2023/03/25 00:52:32;;;;;;;;;;;;;;;;;;5016281;28;19917;-24
2023/03/25 00:54:58;;;;;;;;;;;;;;;;;;5016279;28;20001;-24
2023/03/25 00:57:24;;;;;;;;;;;;;;;;;;5016226;28;19921;-24
2023/03/25 00:59:50;;;;;;;;;;;;;;;;;;5016141;28;19913;-24
2023/03/25 01:02:17;;;;;;;;;;;;;;;;;;5015891;28;19975;-24
2023/03/25 01:04:44;;;;;;;;;;;;;;;;;;5016427;28;19971;-24
2023/03/25 01:07:10;;;;;;;;;;;;;;;;;;5016086;28;19909;-24
2023/03/25 01:09:36;;;;;;;;;;;;;;;;;;5016092;28;20308;-24
2023/03/25 01:12:02;;;;;;;;;;;;;;;;;;5016194;28;19913;-24
2023/03/25 01:14:28;;;;;;;;;;;;;;;;;;5015863;28;19914;-24
2023/03/25 01:16:54;;;;;;;;;;;;;;;;;;5016153;28;19905;-24
2023/03/25 01:19:20;;;;;;;;;;;;;;;;;;5015845;28;20403;-24
2023/03/25 01:21:46;;;;;;;;;;;;;;;;;;5015940;28;19906;-24
2023/03/25 01:24:12;;;;;;;;;;;;;;;;;;5015682;28;20308;-25
2023/03/25 01:26:40;;;;;;;;;;;;;;;;;;5015945;28;19972;-24
2023/03/25 01:29:06;;;;;;;;;;;;;;;;;;5015684;28;19910;-24
2023/03/25 01:31:32;;;;;;;;;;;;;;;;;;5015552;28;20333;-24
2023/03/25 01:33:58;;;;;;;;;;;;;;;;;;5015464;28;19975;-24
2023/03/25 01:36:24;;;;;;;;;;;;;;;;;;5014866;28;19909;-26
2023/03/25 01:38:49;;;;;;;;;;;;;;;;;;5015756;28;19976;-25
2023/03/25 01:41:16;;;;;;;;;;;;;;;;;;5015473;28;19920;-24
2023/03/25 01:43:42;;;;;;;;;;;;;;;;;;5015401;28;19920;-24
2023/03/25 01:46:08;;;;;;;;;;;;;;;;;;5015464;28;19996;-24
2023/03/25 01:48:36;;;;;;;;;;;;;;;;;;5015392;28;19957;-24
2023/03/25 01:51:02;;;;;;;;;;;;;;;;;;5015639;28;19909;-25
2023/03/25 01:53:28;;;;;;;;;;;;;;;;;;5015219;28;19913;-24
2023/03/25 01:55:55;;;;;;;;;;;;;;;;;;5015468;28;19933;-24
2023/03/25 01:58:21;;;;;;;;;;;;;;;;;;5015245;28;19913;-24
2023/03/25 02:00:47;;;;;;;;;;;;;;;;;;5015383;28;19909;-24
2023/03/25 02:03:13;;;;;;;;;;;;;;;;;;5014936;28;20411;-25
2023/03/25 02:05:39;;;;;;;;;;;;;;;;;;5015073;28;19953;-24
2023/03/25 02:08:05;;;;;;;;;;;;;;;;;;5015113;28;19920;-24
2023/03/25 02:10:32;;;;;;;;;;;;;;;;;;5015215;28;19941;-24
2023/03/25 02:12:58;;;;;;;;;;;;;;;;;;5014946;28;19913;-24
2023/03/25 02:15:24;;;;;;;;;;;;;;;;;;5015737;28;19975;-24
2023/03/25 02:17:49;;;;;;;;;;;;;;;;;;5015217;28;19910;-24
2023/03/25 02:20:15;;;;;;;;;;;;;;;;;;5015035;28;19917;-24
2023/03/25 02:22:41;;;;;;;;;;;;;;;;;;5015067;28;19910;-24
2023/03/25 02:25:08;;;;;;;;;;;;;;;;;;5014938;28;19916;-24
2023/03/25 02:27:40;;;;;;;;;;;;;;;;;;5014916;28;19909;-24
2023/03/25 02:30:06;;;;;;;;;;;;;;;;;;5015110;28;20445;-24
2023/03/25 02:32:32;;;;;;;;;;;;;;;;;;5014662;28;19992;-24
2023/03/25 02:34:58;;;;;;;;;;;;;;;;;;5014764;28;19960;-24
2023/03/25 02:37:25;;;;;;;;;;;;;;;;;;5015011;28;19920;-24
2023/03/25 02:39:51;;;;;;;;;;;;;;;;;;5014640;28;19910;-24
2023/03/25 02:42:17;;;;;;;;;;;;;;;;;;5014645;28;19921;-24
2023/03/25 02:44:43;;;;;;;;;;;;;;;;;;5014636;28;19909;-24
2023/03/25 02:47:09;;;;;;;;;;;;;;;;;;5014848;28;19939;-24
2023/03/25 02:49:35;;;;;;;;;;;;;;;;;;5018576;28;19914;-24
2023/03/25 02:52:01;;;;;;;;;;;;;;;;;;5018475;28;20221;-24
2023/03/25 02:54:27;;;;;;;;;;;;;;;;;;5018567;28;19931;-24
2023/03/25 02:56:56;;;;;;;;;;;;;;;;;;5018499;28;19905;-24
2023/03/25 02:59:22;;;;;;;;;;;;;;;;;;5018653;28;19910;-24
2023/03/25 03:01:49;;;;;;;;;;;;;;;;;;5018338;28;19963;-24
2023/03/25 03:04:15;;;;;;;;;;;;;;;;;;5018277;28;19926;-24
2023/03/25 03:06:41;;;;;;;;;;;;;;;;;;5018636;28;19905;-24
2023/03/25 03:09:07;;;;;;;;;;;;;;;;;;5018322;28;19910;-24
2023/03/25 03:11:34;;;;;;;;;;;;;;;;;;5018424;28;19956;-24
2023/03/25 03:14:00;;;;;;;;;;;;;;;;;;5018098;28;20008;-24
2023/03/25 03:16:29;;;;;;;;;;;;;;;;;;5018134;28;19948;-24
2023/03/25 03:18:56;;;;;;;;;;;;;;;;;;5018075;28;20412;-24
2023/03/25 03:21:23;;;;;;;;;;;;;;;;;;5018335;28;19909;-24
2023/03/25 03:23:49;;;;;;;;;;;;;;;;;;5017864;28;19939;-24
2023/03/25 03:26:15;;;;;;;;;;;;;;;;;;5018156;28;20040;-25
2023/03/25 03:28:41;;;;;;;;;;;;;;;;;;5018143;28;19910;-24
2023/03/25 03:31:07;;;;;;;;;;;;;;;;;;5017812;28;20285;-24
2023/03/25 03:33:33;;;;;;;;;;;;;;;;;;5017687;28;20229;-24
2023/03/25 03:36:00;;;;;;;;;;;;;;;;;;5017779;28;20016;-24
2023/03/25 03:38:26;;;;;;;;;;;;;;;;;;5018017;28;19936;-24
2023/03/25 03:40:52;;;;;;;;;;;;;;;;;;5017709;28;19909;-24
2023/03/25 03:43:18;;;;;;;;;;;;;;;;;;5018159;28;19913;-24
2023/03/25 03:45:45;;;;;;;;;;;;;;;;;;5017595;28;19910;-24
2023/03/25 03:48:11;;;;;;;;;;;;;;;;;;5017529;28;19909;-24
2023/03/25 03:50:37;;;;;;;;;;;;;;;;;;5017479;28;19928;-24
2023/03/25 03:53:03;;;;;;;;;;;;;;;;;;5017229;28;19956;-24
2023/03/25 03:55:29;;;;;;;;;;;;;;;;;;5017594;28;19910;-25
2023/03/25 03:57:55;;;;;;;;;;;;;;;;;;5017324;28;20075;-24
2023/03/25 04:00:21;;;;;;;;;;;;;;;;;;5016575;28;20009;-24
2023/03/25 04:02:47;;;;;;;;;;;;;;;;;;5016970;28;19921;-24
2023/03/25 04:05:14;;;;;;;;;;;;;;;;;;5017455;28;19909;-24
2023/03/25 04:07:40;;;;;;;;;;;;;;;;;;5017169;28;19910;-24
2023/03/25 04:10:07;;;;;;;;;;;;;;;;;;5017135;28;20248;-24
2023/03/25 04:12:33;;;;;;;;;;;;;;;;;;5016958;28;20308;-24
2023/03/25 04:14:59;;;;;;;;;;;;;;;;;;5017279;28;19909;-24
2023/03/25 04:17:28;;;;;;;;;;;;;;;;;;5017239;28;19917;-24
2023/03/25 04:19:54;;;;;;;;;;;;;;;;;;5017002;28;19972;-24
2023/03/25 04:22:20;;;;;;;;;;;;;;;;;;5016840;28;19913;-24
2023/03/25 04:24:48;;;;;;;;;;;;;;;;;;5016856;28;19994;-24
2023/03/25 04:27:14;;;;;;;;;;;;;;;;;;5016851;28;19909;-24
2023/03/25 04:29:42;;;;;;;;;;;;;;;;;;5016741;28;19967;-23
2023/03/25 04:32:08;;;;;;;;;;;;;;;;;;5016609;28;19924;-24
2023/03/25 04:34:34;;;;;;;;;;;;;;;;;;5016885;28;20012;-24
2023/03/25 04:37:00;;;;;;;;;;;;;;;;;;5016545;28;19925;-24
2023/03/25 04:39:28;;;;;;;;;;;;;;;;;;5016533;28;19937;-24
2023/03/25 04:42:00;;;;;;;;;;;;;;;;;;5016410;28;19996;-24
2023/03/25 04:44:27;;;;;;;;;;;;;;;;;;5016763;28;19996;-24
2023/03/25 04:46:54;;;;;;;;;;;;;;;;;;5016428;28;19916;-24
2023/03/25 04:49:20;;;;;;;;;;;;;;;;;;5016333;28;20048;-24
2023/03/25 04:51:48;;;;;;;;;;;;;;;;;;5016119;28;20345;-24
2023/03/25 04:54:14;;;;;;;;;;;;;;;;;;5016225;28;19909;-24
2023/03/25 04:56:40;;;;;;;;;;;;;;;;;;5016491;28;19921;-24
2023/03/25 04:59:08;;;;;;;;;;;;;;;;;;5016438;28;19910;-24
2023/03/25 05:01:36;;;;;;;;;;;;;;;;;;5016135;28;19948;-24
2023/03/25 05:04:05;;;;;;;;;;;;;;;;;;5015950;28;19929;-24
2023/03/25 05:06:32;;;;;;;;;;;;;;;;;;5016602;28;19909;-24
2023/03/25 05:09:00;;;;;;;;;;;;;;;;;;5016322;28;20245;-24
2023/03/25 05:11:26;;;;;;;;;;;;;;;;;;5015245;28;19917;-24
2023/03/25 05:13:52;;;;;;;;;;;;;;;;;;5015792;28;20348;-24
2023/03/25 05:16:18;;;;;;;;;;;;;;;;;;5015871;28;19909;-24
2023/03/25 05:18:44;;;;;;;;;;;;;;;;;;5015883;28;19940;-24
2023/03/25 05:21:11;;;;;;;;;;;;;;;;;;5016057;28;19916;-24
2023/03/25 05:23:37;;;;;;;;;;;;;;;;;;5015712;28;19936;-24
2023/03/25 05:26:03;;;;;;;;;;;;;;;;;;5015766;28;19909;-25
2023/03/25 05:28:29;;;;;;;;;;;;;;;;;;5015605;28;20224;-24
2023/03/25 05:30:55;;;;;;;;;;;;;;;;;;5015642;28;19928;-24
2023/03/25 05:33:21;;;;;;;;;;;;;;;;;;5015503;28;19914;-24
2023/03/25 05:35:47;;;;;;;;;;;;;;;;;;5015863;28;19992;-24
2023/03/25 05:38:17;;;;;;;;;;;;;;;;;;5015612;28;19910;-24
2023/03/25 05:40:44;;;;;;;;;;;;;;;;;;5015698;28;19914;-24
2023/03/25 05:43:10;;;;;;;;;;;;;;;;;;5015400;28;19952;-24
2023/03/25 05:45:36;;;;;;;;;;;;;;;;;;5015429;28;19910;-24
2023/03/25 05:48:02;;;;;;;;;;;;;;;;;;5015395;28;19909;-24
2023/03/25 05:50:28;;;;;;;;;;;;;;;;;;5015658;28;20009;-24
2023/03/25 05:52:54;;;;;;;;;;;;;;;;;;5014270;28;19991;-24
2023/03/25 05:55:20;;;;;;;;;;;;;;;;;;5015554;28;19909;-24
2023/03/25 05:57:46;;;;;;;;;;;;;;;;;;5015213;28;19909;-24
2023/03/25 06:00:12;;;;;;;;;;;;;;;;;;5015197;28;19925;-24
2023/03/25 06:02:38;;;;;;;;;;;;;;;;;;5014852;28;20011;-24
2023/03/25 06:05:04;;;;;;;;;;;;;;;;;;5015341;28;19972;-24
2023/03/25 06:07:31;;;;;;;;;;;;;;;;;;5015121;28;20323;-24
2023/03/25 06:09:57;;;;;;;;;;;;;;;;;;5015316;28;19909;-24
2023/03/25 06:12:26;;;;;;;;;;;;;;;;;;5014875;28;20379;-25
2023/03/25 06:14:53;;;;;;;;;;;;;;;;;;5014883;28;19909;-24
2023/03/25 06:17:20;;;;;;;;;;;;;;;;;;5014943;28;19909;-24
2023/03/25 06:19:46;;;;;;;;;;;;;;;;;;5014971;28;19952;-24
2023/03/25 06:22:12;;;;;;;;;;;;;;;;;;5013598;28;20252;-24
2023/03/25 06:24:38;;;;;;;;;;;;;;;;;;5014913;28;20005;-24
2023/03/25 06:27:08;;;;;;;;;;;;;;;;;;5015198;28;19959;-24
2023/03/25 06:29:35;;;;;;;;;;;;;;;;;;5014890;28;19910;-24
2023/03/25 06:32:01;;;;;;;;;;;;;;;;;;5014660;28;19936;-24
2023/03/25 06:34:27;;;;;;;;;;;;;;;;;;5014799;28;19910;-24
2023/03/25 06:36:53;;;;;;;;;;;;;;;;;;5015011;28;19917;-24
2023/03/25 06:39:19;;;;;;;;;;;;;;;;;;5014807;28;19909;-24
2023/03/25 06:41:45;;;;;;;;;;;;;;;;;;5014673;28;19909;-24
2023/03/25 06:44:11;;;;;;;;;;;;;;;;;;5014835;28;19910;-24
2023/03/25 06:46:37;;;;;;;;;;;;;;;;;;5014937;28;20384;-24
2023/03/25 06:49:03;;;;;;;;;;;;;;;;;;5014730;28;20304;-24
2023/03/25 06:51:29;;;;;;;;;;;;;;;;;;5014635;28;19941;-24
2023/03/25 06:53:55;;;;;;;;;;;;;;;;;;5014468;28;19917;-24
2023/03/25 06:56:21;;;;;;;;;;;;;;;;;;5014637;28;19921;-24
2023/03/25 06:58:47;;;;;;;;;;;;;;;;;;5014570;28;19909;-24
2023/03/25 07:01:13;;;;;;;;;;;;;;;;;;5014865;28;19910;-24
2023/03/25 07:03:39;;;;;;;;;;;;;;;;;;5014225;28;19922;-24
2023/03/25 07:06:05;;;;;;;;;;;;;;;;;;5014581;28;20273;-24
2023/03/25 07:08:31;;;;;;;;;;;;;;;;;;5014565;28;19960;-24
2023/03/25 07:10:57;;;;;;;;;;;;;;;;;;5014477;28;19935;-24
2023/03/25 07:13:23;;;;;;;;;;;;;;;;;;5014326;28;19917;-24
2023/03/25 07:15:49;;;;;;;;;;;;;;;;;;5014345;28;19920;-27
2023/03/25 07:18:15;;;;;;;;;;;;;;;;;;5014399;28;19913;-24
2023/03/25 07:20:42;;;;;;;;;;;;;;;;;;5014401;28;19909;-24
2023/03/25 07:23:08;;;;;;;;;;;;;;;;;;5014411;28;19932;-24
2023/03/25 07:25:34;;;;;;;;;;;;;;;;;;5014387;28;20287;-24
2023/03/25 07:28:00;;;;;;;;;;;;;;;;;;5014210;28;19910;-24
2023/03/25 07:30:26;;;;;;;;;;;;;;;;;;5014289;28;19914;-24
2023/03/25 07:32:52;;;;;;;;;;;;;;;;;;5014144;28;19924;-24
2023/03/25 07:35:18;;;;;;;;;;;;;;;;;;5016150;28;19949;-24
2023/03/25 07:37:44;;;;;;;;;;;;;;;;;;5017992;28;19909;-24
2023/03/25 07:40:10;;;;;;;;;;;;;;;;;;5017788;28;20018;-24
2023/03/25 07:42:37;;;;;;;;;;;;;;;;;;5017647;28;19960;-24
2023/03/25 07:45:03;;;;;;;;;;;;;;;;;;5017879;28;19910;-24
2023/03/25 07:47:29;;;;;;;;;;;;;;;;;;5017616;28;19979;-24
2023/03/25 07:49:55;;;;;;;;;;;;;;;;;;5017742;28;19956;-24
2023/03/25 07:52:21;;;;;;;;;;;;;;;;;;5017317;28;19913;-24
2023/03/25 07:54:47;;;;;;;;;;;;;;;;;;5017669;28;19963;-24
2023/03/25 07:57:13;;;;;;;;;;;;;;;;;;5017700;28;20339;-24
2023/03/25 07:59:39;;;;;;;;;;;;;;;;;;5017329;28;19910;-29
2023/03/25 08:02:05;;;;;;;;;;;;;;;;;;5017211;28;19909;-24
2023/03/25 08:04:31;;;;;;;;;;;;;;;;;;5017084;28;19971;-24
2023/03/25 08:06:57;;;;;;;;;;;;;;;;;;5017165;28;20028;-24
2023/03/25 08:09:23;;;;;;;;;;;;;;;;;;5017143;28;20051;-24
2023/03/25 08:11:50;;;;;;;;;;;;;;;;;;5016968;28;19910;-24
2023/03/25 08:14:16;;;;;;;;;;;;;;;;;;5017322;28;20004;-24
2023/03/25 08:16:42;;;;;;;;;;;;;;;;;;5016993;28;19980;-24
2023/03/25 08:19:08;;;;;;;;;;;;;;;;;;5017289;28;20341;-24
2023/03/25 08:21:34;;;;;;;;;;;;;;;;;;5017005;28;19909;-24
2023/03/25 08:24:03;;;;;;;;;;;;;;;;;;5016835;28;19920;-24
2023/03/25 08:26:30;;;;;;;;;;;;;;;;;;5016966;28;19909;-24
2023/03/25 08:28:56;;;;;;;;;;;;;;;;;;5016972;28;19913;-24
2023/03/25 08:31:22;;;;;;;;;;;;;;;;;;5016780;28;19909;-24
2023/03/25 08:33:48;;;;;;;;;;;;;;;;;;5016592;28;19940;-24
2023/03/25 08:36:18;;;;;;;;;;;;;;;;;;5016917;28;19916;-24
2023/03/25 08:38:44;;;;;;;;;;;;;;;;;;5016585;28;19909;-24
2023/03/25 08:41:10;;;;;;;;;;;;;;;;;;5016595;28;20287;-24
2023/03/25 08:43:36;;;;;;;;;;;;;;;;;;5016443;28;19910;-24
2023/03/25 08:46:02;;;;;;;;;;;;;;;;;;5016223;28;19909;-24
2023/03/25 08:48:28;;;;;;;;;;;;;;;;;;5016376;28;19909;-24
2023/03/25 08:50:54;;;;;;;;;;;;;;;;;;5016476;28;20056;-24
2023/03/25 08:53:20;;;;;;;;;;;;;;;;;;5016230;28;19913;-24
2023/03/25 08:55:46;;;;;;;;;;;;;;;;;;5016217;28;19971;-24
2023/03/25 08:58:12;;;;;;;;;;;;;;;;;;5016222;28;19909;-24
2023/03/25 09:00:38;;;;;;;;;;;;;;;;;;5016188;28;19909;-24
2023/03/25 09:03:05;;;;;;;;;;;;;;;;;;5017919;28;20368;-24
2023/03/25 09:05:31;;;;;;;;;;;;;;;;;;5016124;28;20008;-24
2023/03/25 09:07:57;;;;;;;;;;;;;;;;;;5016308;28;19909;-24
2023/03/25 09:10:23;;;;;;;;;;;;;;;;;;5016035;28;20372;-24
2023/03/25 09:12:49;;;;;;;;;;;;;;;;;;5015854;28;19920;-24
2023/03/25 09:15:14;;;;;;;;;;;;;;;;;;5016232;28;20344;-23
2023/03/25 09:17:41;;;;;;;;;;;;;;;;;;5016160;28;20264;-24
2023/03/25 09:20:07;;;;;;;;;;;;;;;;;;5015890;28;20259;-23
2023/03/25 09:22:33;;;;;;;;;;;;;;;;;;5015797;28;19941;-31
2023/03/25 09:24:59;;;;;;;;;;;;;;;;;;5016463;28;19937;-24
2023/03/25 09:27:25;;;;;;;;;;;;;;;;;;5015951;28;19925;-24
2023/03/25 09:29:51;;;;;;;;;;;;;;;;;;5015925;28;20249;-24
2023/03/25 09:32:18;;;;;;;;;;;;;;;;;;5015746;28;19956;-24
2023/03/25 09:34:43;;;;;;;;;;;;;;;;;;5015620;28;19910;-24
2023/03/25 09:37:09;;;;;;;;;;;;;;;;;;5015675;28;19920;-24
2023/03/25 09:39:35;;;;;;;;;;;;;;;;;;5015647;28;19914;-24
2023/03/25 09:42:01;;;;;;;;;;;;;;;;;;5015420;28;19909;-24
2023/03/25 09:44:27;;;;;;;;;;;;;;;;;;5015723;28;20263;-24
2023/03/25 09:46:53;;;;;;;;;;;;;;;;;;5015481;28;19909;-24
2023/03/25 09:49:19;;;;;;;;;;;;;;;;;;5015343;28;19910;-24
2023/03/25 09:51:45;;;;;;;;;;;;;;;;;;5015531;28;19914;-24
2023/03/25 09:54:11;;;;;;;;;;;;;;;;;;5015305;28;20323;-24
2023/03/25 09:56:37;;;;;;;;;;;;;;;;;;5015072;28;19906;-24
2023/03/25 09:59:03;;;;;;;;;;;;;;;;;;5014823;28;19909;-24
2023/03/25 10:01:29;;;;;;;;;;;;;;;;;;5015242;28;19906;-24
2023/03/25 10:03:55;;;;;;;;;;;;;;;;;;5014922;28;19936;-24
2023/03/25 10:06:25;;;;;;;;;;;;;;;;;;5015146;28;19906;-24
2023/03/25 10:08:50;;;;;;;;;;;;;;;;;;5015824;28;19909;-24
2023/03/25 10:11:16;;;;;;;;;;;;;;;;;;5015333;28;19913;-24
2023/03/25 10:13:42;;;;;;;;;;;;;;;;;;5015152;28;19913;-24
2023/03/25 10:16:08;;;;;;;;;;;;;;;;;;5015266;28;19921;-24
2023/03/25 10:18:34;;;;;;;;;;;;;;;;;;5015033;28;19910;-24
2023/03/25 10:21:01;;;;;;;;;;;;;;;;;;5013956;28;19916;-24
2023/03/25 10:23:27;;;;;;;;;;;;;;;;;;5015222;28;19960;-24
2023/03/25 10:25:53;;;;;;;;;;;;;;;;;;5014877;28;19988;-24
2023/03/25 10:28:19;;;;;;;;;;;;;;;;;;5014927;28;19949;-24
2023/03/25 10:30:45;;;;;;;;;;;;;;;;;;5014905;28;20359;-24
2023/03/25 10:33:11;;;;;;;;;;;;;;;;;;5014698;28;19996;-24
2023/03/25 10:35:37;;;;;;;;;;;;;;;;;;5015432;28;19963;-24
2023/03/25 10:38:05;;;;;;;;;;;;;;;;;;5014737;28;19913;-24
2023/03/25 10:40:31;;;;;;;;;;;;;;;;;;5014725;28;19909;-24
2023/03/25 10:42:58;;;;;;;;;;;;;;;;;;5014613;28;19917;-24
2023/03/25 10:45:24;;;;;;;;;;;;;;;;;;5014676;28;20048;-24
2023/03/25 10:47:50;;;;;;;;;;;;;;;;;;5014592;28;20007;-24
2023/03/25 10:50:16;;;;;;;;;;;;;;;;;;5014912;28;19925;-24
2023/03/25 10:52:42;;;;;;;;;;;;;;;;;;5014639;28;20363;-24
2023/03/25 10:55:08;;;;;;;;;;;;;;;;;;5014823;28;19916;-24
2023/03/25 10:57:34;;;;;;;;;;;;;;;;;;5014569;28;20372;-24
2023/03/25 11:00:00;;;;;;;;;;;;;;;;;;5013961;28;19909;-24
2023/03/25 11:02:26;;;;;;;;;;;;;;;;;;5014245;28;19916;-24
2023/03/25 11:04:53;;;;;;;;;;;;;;;;;;5014365;28;19918;-24
2023/03/25 11:07:18;;;;;;;;;;;;;;;;;;5014408;28;19917;-24
2023/03/25 11:09:44;;;;;;;;;;;;;;;;;;5016992;28;19916;-24
2023/03/25 11:12:10;;;;;;;;;;;;;;;;;;5018607;28;19921;-24
2023/03/25 11:14:37;;;;;;;;;;;;;;;;;;5018127;28;19917;-24
2023/03/25 11:17:04;;;;;;;;;;;;;;;;;;5017981;28;20333;-24
2023/03/25 11:19:30;;;;;;;;;;;;;;;;;;5018059;28;19909;-24
2023/03/25 11:21:56;;;;;;;;;;;;;;;;;;5017870;28;19914;-24
2023/03/25 11:24:22;;;;;;;;;;;;;;;;;;5018103;28;19963;-24
2023/03/25 11:26:48;;;;;;;;;;;;;;;;;;5017868;28;19909;-24
2023/03/25 11:29:14;;;;;;;;;;;;;;;;;;5016884;28;19909;-24
2023/03/25 11:31:40;;;;;;;;;;;;;;;;;;5017840;28;19917;-24
2023/03/25 11:34:06;;;;;;;;;;;;;;;;;;5017586;28;19917;-29
2023/03/25 11:36:32;;;;;;;;;;;;;;;;;;5018032;28;19932;-24
2023/03/25 11:38:58;;;;;;;;;;;;;;;;;;5017732;28;19909;-24
2023/03/25 11:41:24;;;;;;;;;;;;;;;;;;5017660;28;19913;-24
2023/03/25 11:43:50;;;;;;;;;;;;;;;;;;5017447;28;19909;-25
2023/03/25 11:46:16;;;;;;;;;;;;;;;;;;5018156;28;19932;-24
2023/03/25 11:48:42;;;;;;;;;;;;;;;;;;5016511;28;19914;-24
2023/03/25 11:51:08;;;;;;;;;;;;;;;;;;5017324;28;19963;-24
2023/03/25 11:53:34;;;;;;;;;;;;;;;;;;5017325;28;19913;-24
2023/03/25 11:56:00;;;;;;;;;;;;;;;;;;5017357;28;19997;-24
2023/03/25 11:58:26;;;;;;;;;;;;;;;;;;5017539;28;19922;-24
2023/03/25 12:00:52;;;;;;;;;;;;;;;;;;5017185;28;20285;-24
2023/03/25 12:03:19;;;;;;;;;;;;;;;;;;5016863;28;19928;-24
2023/03/25 12:05:45;;;;;;;;;;;;;;;;;;5017169;28;20067;-24
2023/03/25 12:08:14;;;;;;;;;;;;;;;;;;5017448;28;20345;-24
2023/03/25 12:10:40;;;;;;;;;;;;;;;;;;5017412;28;19913;-24
2023/03/25 12:13:06;;;;;;;;;;;;;;;;;;5017011;28;19928;-24
2023/03/25 12:15:32;;;;;;;;;;;;;;;;;;5017366;28;19910;-24
2023/03/25 12:17:58;;;;;;;;;;;;;;;;;;5017245;28;19917;-24
2023/03/25 12:20:24;;;;;;;;;;;;;;;;;;5016324;28;19928;-24
2023/03/25 12:22:50;;;;;;;;;;;;;;;;;;5016778;28;20301;-24
2023/03/25 12:25:16;;;;;;;;;;;;;;;;;;5016773;28;19913;-24
2023/03/25 12:27:42;;;;;;;;;;;;;;;;;;5017460;28;19910;-24
2023/03/25 12:30:08;;;;;;;;;;;;;;;;;;5016747;28;20056;-24
2023/03/25 12:32:34;;;;;;;;;;;;;;;;;;5016567;28;19949;-24
2023/03/25 12:35:00;;;;;;;;;;;;;;;;;;5016623;28;19909;-24
2023/03/25 12:37:26;;;;;;;;;;;;;;;;;;5016868;28;19920;-24
2023/03/25 12:39:52;;;;;;;;;;;;;;;;;;5016614;28;19945;-24
2023/03/25 12:42:18;;;;;;;;;;;;;;;;;;5016486;28;19952;-24
2023/03/25 12:44:44;;;;;;;;;;;;;;;;;;5016504;28;19967;-24
2023/03/25 12:47:10;;;;;;;;;;;;;;;;;;5016431;28;20312;-24
2023/03/25 12:49:36;;;;;;;;;;;;;;;;;;5016454;28;20048;-24
2023/03/25 12:52:02;;;;;;;;;;;;;;;;;;5016270;28;19991;-24
2023/03/25 12:54:28;;;;;;;;;;;;;;;;;;5016606;28;19916;-24
2023/03/25 12:56:54;;;;;;;;;;;;;;;;;;5016300;28;19929;-24
2023/03/25 12:59:20;;;;;;;;;;;;;;;;;;5016277;28;19910;-24
2023/03/25 13:01:46;;;;;;;;;;;;;;;;;;5016155;28;19996;-24
2023/03/25 13:04:12;;;;;;;;;;;;;;;;;;5016017;28;19921;-24
2023/03/25 13:06:38;;;;;;;;;;;;;;;;;;5016143;28;19921;-24
2023/03/25 13:09:04;;;;;;;;;;;;;;;;;;5016339;28;19918;-24
2023/03/25 13:11:30;;;;;;;;;;;;;;;;;;5016028;28;19909;-24
2023/03/25 13:13:56;;;;;;;;;;;;;;;;;;5014832;28;19917;-24
2023/03/25 13:16:23;;;;;;;;;;;;;;;;;;5016018;28;19921;-24
2023/03/25 13:18:49;;;;;;;;;;;;;;;;;;5015967;28;19909;-24
2023/03/25 13:21:15;;;;;;;;;;;;;;;;;;5015959;28;19976;-24
2023/03/25 13:23:41;;;;;;;;;;;;;;;;;;5015881;28;19936;-24
2023/03/25 13:26:07;;;;;;;;;;;;;;;;;;5016177;28;19909;-24
2023/03/25 13:28:37;;;;;;;;;;;;;;;;;;5015811;28;19909;-30
2023/03/25 13:31:03;;;;;;;;;;;;;;;;;;5015774;28;20238;-24
2023/03/25 13:33:29;;;;;;;;;;;;;;;;;;5015014;28;19913;-24
2023/03/25 13:35:55;;;;;;;;;;;;;;;;;;5015852;28;20004;-24
2023/03/25 13:38:21;;;;;;;;;;;;;;;;;;5015624;28;20345;-24
2023/03/25 13:40:47;;;;;;;;;;;;;;;;;;5015539;28;19910;-24
2023/03/25 13:43:13;;;;;;;;;;;;;;;;;;5015678;28;20348;-24
2023/03/25 13:45:39;;;;;;;;;;;;;;;;;;5015520;28;19909;-24
2023/03/25 13:48:05;;;;;;;;;;;;;;;;;;5015446;28;19909;-24
2023/03/25 13:50:31;;;;;;;;;;;;;;;;;;5015436;28;19910;-24
2023/03/25 13:52:57;;;;;;;;;;;;;;;;;;5015258;28;20012;-24
2023/03/25 13:55:23;;;;;;;;;;;;;;;;;;5015337;28;19914;-24
2023/03/25 13:57:49;;;;;;;;;;;;;;;;;;5015611;28;20369;-24
2023/03/25 14:00:15;;;;;;;;;;;;;;;;;;5015281;28;19932;-24
2023/03/25 14:02:41;;;;;;;;;;;;;;;;;;5015165;28;19964;-24
2023/03/25 14:05:09;;;;;;;;;;;;;;;;;;5015210;28;19952;-24
2023/03/25 14:07:35;;;;;;;;;;;;;;;;;;5015519;28;19937;-24
2023/03/25 14:10:01;;;;;;;;;;;;;;;;;;5015100;28;19933;-24
2023/03/25 14:12:28;;;;;;;;;;;;;;;;;;5015051;28;19961;-24
2023/03/25 14:14:54;;;;;;;;;;;;;;;;;;5014988;28;20352;-24
2023/03/25 14:17:21;;;;;;;;;;;;;;;;;;5015075;28;19909;-24
2023/03/25 14:19:47;;;;;;;;;;;;;;;;;;5014943;28;19909;-24
2023/03/25 14:22:13;;;;;;;;;;;;;;;;;;5013878;28;19909;-24
2023/03/25 14:24:40;;;;;;;;;;;;;;;;;;5014978;28;19910;-24
2023/03/25 14:27:06;;;;;;;;;;;;;;;;;;5014894;28;19964;-24
2023/03/25 14:29:32;;;;;;;;;;;;;;;;;;5014846;28;19913;-24
2023/03/25 14:31:58;;;;;;;;;;;;;;;;;;5014741;28;19921;-24
2023/03/25 14:34:24;;;;;;;;;;;;;;;;;;5015149;28;19956;-24
2023/03/25 14:36:50;;;;;;;;;;;;;;;;;;5015061;28;19920;-24
2023/03/25 14:39:16;;;;;;;;;;;;;;;;;;5014787;28;19996;-24
2023/03/25 14:41:42;;;;;;;;;;;;;;;;;;5014816;28;19960;-24
2023/03/25 14:44:08;;;;;;;;;;;;;;;;;;5016558;28;19910;-24
2023/03/25 14:46:34;;;;;;;;;;;;;;;;;;5017842;28;20008;-24
2023/03/25 14:49:01;;;;;;;;;;;;;;;;;;5018759;28;20344;-24
2023/03/25 14:51:29;;;;;;;;;;;;;;;;;;5018688;28;19913;-24
2023/03/25 14:53:55;;;;;;;;;;;;;;;;;;5018561;28;19923;-24
2023/03/25 14:56:22;;;;;;;;;;;;;;;;;;5018674;28;19910;-24
2023/03/25 14:58:47;;;;;;;;;;;;;;;;;;5018597;28;20064;-36
2023/03/25 15:01:13;;;;;;;;;;;;;;;;;;5018831;28;19948;-24
2023/03/25 15:03:41;;;;;;;;;;;;;;;;;;5018255;28;19922;-24
2023/03/25 15:06:08;;;;;;;;;;;;;;;;;;5018477;28;19916;-24
2023/03/25 15:08:33;;;;;;;;;;;;;;;;;;5018368;28;19909;-24
2023/03/25 15:10:59;;;;;;;;;;;;;;;;;;5018328;28;19917;-24
2023/03/25 15:13:26;;;;;;;;;;;;;;;;;;5018170;28;19924;-24
2023/03/25 15:15:52;;;;;;;;;;;;;;;;;;5017339;28;19909;-24
2023/03/25 15:18:18;;;;;;;;;;;;;;;;;;5018200;28;19910;-24
2023/03/25 15:20:44;;;;;;;;;;;;;;;;;;5018205;28;19910;-24
2023/03/25 15:23:10;;;;;;;;;;;;;;;;;;5018136;28;19909;-24
2023/03/25 15:25:36;;;;;;;;;;;;;;;;;;5018035;28;19924;-24
2023/03/25 15:28:02;;;;;;;;;;;;;;;;;;5018540;28;19913;-24
2023/03/25 15:30:28;;;;;;;;;;;;;;;;;;5017124;28;19922;-24
2023/03/25 15:32:54;;;;;;;;;;;;;;;;;;5017849;28;20280;-24
2023/03/25 15:35:20;;;;;;;;;;;;;;;;;;5017929;28;19910;-24
2023/03/25 15:37:46;;;;;;;;;;;;;;;;;;5018075;28;19920;-24
2023/03/25 15:40:12;;;;;;;;;;;;;;;;;;5018099;28;19910;-24
2023/03/25 15:42:38;;;;;;;;;;;;;;;;;;5017693;28;20244;-25
2023/03/25 15:45:04;;;;;;;;;;;;;;;;;;5017931;28;19993;-24
2023/03/25 15:47:30;;;;;;;;;;;;;;;;;;5017658;28;19925;-24
2023/03/25 15:49:56;;;;;;;;;;;;;;;;;;5017653;28;20267;-24
2023/03/25 15:52:22;;;;;;;;;;;;;;;;;;5017489;28;19975;-24
2023/03/25 15:54:48;;;;;;;;;;;;;;;;;;5016935;28;20205;-24
2023/03/25 15:57:15;;;;;;;;;;;;;;;;;;5017120;28;20001;-24
2023/03/25 15:59:41;;;;;;;;;;;;;;;;;;5017472;28;19916;-24
2023/03/25 16:02:08;;;;;;;;;;;;;;;;;;5017314;28;19909;-24
2023/03/25 16:04:34;;;;;;;;;;;;;;;;;;5017140;28;20016;-24
2023/03/25 16:07:00;;;;;;;;;;;;;;;;;;5018015;28;19952;-24
2023/03/25 16:09:26;;;;;;;;;;;;;;;;;;5017312;28;19936;-24
2023/03/25 16:11:52;;;;;;;;;;;;;;;;;;5017150;28;20249;-24
2023/03/25 16:14:18;;;;;;;;;;;;;;;;;;5017103;28;19965;-24
2023/03/25 16:16:46;;;;;;;;;;;;;;;;;;5016693;28;20214;-24
2023/03/25 16:19:12;;;;;;;;;;;;;;;;;;5017422;28;20248;-24
2023/03/25 16:21:38;;;;;;;;;;;;;;;;;;5017276;28;19969;-24
2023/03/25 16:24:04;;;;;;;;;;;;;;;;;;5016876;28;19967;-24
2023/03/25 16:26:30;;;;;;;;;;;;;;;;;;5015964;28;19910;-24
2023/03/25 16:29:00;;;;;;;;;;;;;;;;;;5017133;28;20292;-24
2023/03/25 16:31:25;;;;;;;;;;;;;;;;;;5016832;28;19909;-24
2023/03/25 16:33:51;;;;;;;;;;;;;;;;;;5016665;28;19913;-24
2023/03/25 16:36:17;;;;;;;;;;;;;;;;;;5016801;28;19967;-24
2023/03/25 16:38:43;;;;;;;;;;;;;;;;;;5016785;28;19917;-24